createdAt,value
2022-11-13T12:21:38.558Z,17.13
2022-11-13T12:24:25.374Z,15.65
2022-11-13T12:26:58.169Z,17.67
2022-11-13T12:29:24.773Z,17.63
2022-11-13T12:32:00.146Z,16.92
2022-11-13T12:34:38.242Z,14.50
2022-11-13T12:37:13.166Z,13.75
2022-11-13T12:39:52.451Z,11.57
2022-11-13T12:42:34.298Z,11.80
2022-11-13T12:45:16.660Z,12.85
2022-11-13T12:47:43.511Z,11.38
2022-11-13T12:50:32.518Z,11.18
2022-11-13T12:53:05.737Z,10.73
2022-11-13T12:55:38.840Z,11.07
2022-11-13T12:58:20.793Z,11.90
2022-11-13T13:00:56.790Z,11.48
2022-11-13T13:04:18.098Z,11.02
2022-11-13T13:07:05.593Z,11.30
2022-11-13T13:09:41.274Z,11.00
2022-11-13T13:12:44.911Z,10.98
2022-11-13T13:15:28.573Z,12.13
2022-11-13T13:18:24.559Z,12.00
2022-11-13T13:20:57.335Z,11.73
2022-11-13T13:23:44.526Z,12.63
2022-11-13T13:26:15.949Z,13.25
2022-11-13T13:28:49.419Z,13.50
2022-11-13T13:31:41.668Z,13.00
2022-11-13T13:34:19.422Z,12.02
2022-11-13T13:36:49.040Z,13.85
2022-11-13T13:39:38.808Z,12.77
2022-11-13T13:42:24.086Z,12.63
2022-11-13T13:45:03.039Z,15.15
2022-11-13T13:47:41.153Z,14.93
2022-11-13T13:50:14.474Z,15.95
2022-11-13T13:52:43.821Z,14.02
2022-11-13T13:55:22.816Z,14.95
2022-11-13T13:57:49.587Z,18.27
2022-11-13T14:00:19.107Z,19.38
2022-11-13T14:05:30.835Z,18.77
2022-11-13T14:07:58.023Z,19.00
2022-11-13T14:10:28.248Z,20.88
2022-11-13T14:12:56.168Z,21.48
2022-11-13T14:15:29.158Z,20.80
2022-11-13T14:18:07.750Z,19.75
2022-11-13T14:21:00.882Z,20.70
2022-11-13T14:23:29.915Z,22.20
2022-11-13T14:25:57.473Z,21.83
2022-11-13T14:28:33.719Z,23.38
2022-11-13T14:31:07.113Z,25.23
2022-11-13T14:33:46.739Z,24.38
2022-11-13T14:36:16.473Z,25.80
2022-11-13T14:38:52.248Z,25.42
2022-11-13T14:41:24.637Z,25.73
2022-11-13T14:43:52.731Z,23.60
2022-11-13T14:46:39.196Z,25.77
2022-11-13T14:49:14.712Z,26.52
2022-11-13T14:51:41.510Z,25.50
2022-11-13T14:54:33.751Z,27.00
2022-11-13T14:57:11.184Z,25.55
2022-11-13T15:02:05.732Z,24.55
2022-11-13T15:04:36.472Z,24.73
2022-11-13T15:07:29.802Z,29.88
2022-11-13T15:09:57.401Z,22.60
2022-11-13T15:12:24.262Z,22.85
2022-11-13T15:14:51.516Z,25.02
2022-11-13T15:17:21.218Z,24.52
2022-11-13T15:19:51.539Z,25.20
2022-11-13T15:22:27.256Z,24.13
2022-11-13T15:24:54.853Z,26.80
2022-11-13T15:27:21.733Z,28.05
2022-11-13T15:29:48.429Z,31.20
2022-11-13T15:32:16.231Z,31.08
2022-11-13T15:34:43.317Z,30.20
2022-11-13T15:37:15.728Z,33.40
2022-11-13T15:39:42.496Z,29.75
2022-11-13T15:42:14.383Z,29.90
2022-11-13T15:44:41.007Z,34.58
2022-11-13T15:47:30.346Z,34.38
2022-11-13T15:50:12.919Z,36.95
2022-11-13T15:52:43.006Z,33.00
2022-11-13T15:55:24.741Z,34.50
2022-11-13T15:57:51.707Z,31.20
2022-11-13T16:00:21.698Z,37.72
2022-11-13T16:02:50.791Z,33.35
2022-11-13T16:05:18.223Z,31.20
2022-11-13T16:07:44.951Z,29.92
2022-11-13T16:10:11.745Z,27.00
2022-11-13T16:12:38.369Z,37.08
2022-11-13T16:15:05.707Z,30.25
2022-11-13T16:17:39.459Z,26.45
2022-11-13T16:20:07.918Z,25.88
2022-11-13T16:22:34.553Z,29.60
2022-11-13T16:25:01.231Z,34.45
2022-11-13T16:27:34.073Z,32.75
2022-11-13T16:30:05.536Z,33.20
2022-11-13T16:32:33.678Z,34.55
2022-11-13T16:35:00.285Z,37.90
2022-11-13T16:37:26.881Z,34.30
2022-11-13T16:39:53.564Z,34.38
2022-11-13T16:42:20.152Z,28.35
2022-11-13T16:44:46.835Z,28.52
2022-11-13T16:47:32.783Z,36.65
2022-11-13T16:50:00.886Z,29.40
2022-11-13T16:52:28.000Z,34.00
2022-11-13T16:54:54.616Z,36.53
2022-11-13T16:57:21.197Z,37.75
2022-11-13T16:59:47.866Z,34.28
2022-11-13T17:02:17.005Z,33.28
2022-11-13T17:04:44.573Z,35.30
2022-11-13T17:07:13.646Z,35.20
2022-11-13T17:09:45.288Z,41.20
2022-11-13T17:12:12.025Z,42.88
2022-11-13T17:14:39.376Z,38.60
2022-11-13T17:17:11.746Z,35.25
2022-11-13T17:19:43.904Z,40.03
2022-11-13T17:22:11.688Z,35.63
2022-11-13T17:24:39.382Z,38.15
2022-11-13T17:27:06.651Z,35.88
2022-11-13T17:29:33.837Z,42.38
2022-11-13T17:32:00.627Z,42.25
2022-11-13T17:34:27.219Z,41.03
2022-11-13T17:36:56.679Z,43.50
2022-11-13T17:41:50.670Z,47.80
2022-11-13T17:44:17.749Z,38.80
2022-11-13T17:46:44.811Z,38.03
2022-11-13T17:49:11.407Z,36.97
2022-11-13T17:51:38.290Z,40.67
2022-11-13T17:54:04.925Z,49.45
2022-11-13T17:56:31.568Z,43.92
2022-11-13T17:58:58.202Z,46.85
2022-11-13T18:01:25.066Z,46.22
2022-11-13T18:03:58.693Z,46.13
2022-11-13T18:06:25.538Z,43.75
2022-11-13T18:08:52.171Z,40.80
2022-11-13T18:11:24.396Z,46.15
2022-11-13T18:13:52.002Z,48.05
2022-11-13T18:16:29.580Z,48.97
2022-11-13T18:18:58.031Z,45.42
2022-11-13T18:21:28.252Z,41.55
2022-11-13T18:23:57.993Z,41.08
2022-11-13T18:26:25.569Z,45.85
2022-11-13T18:28:52.211Z,43.65
2022-11-13T18:31:20.222Z,43.78
2022-11-13T18:33:47.950Z,43.92
2022-11-13T18:36:15.062Z,42.97
2022-11-13T18:38:43.548Z,44.80
2022-11-13T18:41:13.015Z,40.33
